Time;durP1;ratioP1;P1;durP2;ratioP2;P2;SDS_P1;SDS_P2;PMS_P1;PMS_P2;Temp;Humidity;BMP_temperature;BMP_pressure;BME280_temperature;BME280_humidity;BME280_pressure;Samples;Min_cycle;Max_cycle;Signal;HPM_P1;HPM_P2
2022/08/02 00:01:43;;;;;;;7.80;2.92;;;14.70;99.90;;;;;;4824042;29;20057;-84
2022/08/02 00:04:10;;;;;;;6.60;3.20;;;14.70;99.90;;;;;;4821794;29;20133;-85
2022/08/02 00:06:36;;;;;;;5.22;3.17;;;14.70;99.90;;;;;;4832467;29;20063;-85
2022/08/02 00:09:03;;;;;;;5.22;3.17;;;14.80;99.90;;;;;;4839467;29;20058;-85
2022/08/02 00:11:29;;;;;;;7.10;3.50;;;14.80;99.90;;;;;;4820524;29;20046;-85
2022/08/02 00:13:55;;;;;;;10.45;3.50;;;14.80;99.90;;;;;;4810118;29;20487;-85
2022/08/02 00:16:20;;;;;;;9.95;3.40;;;14.80;99.90;;;;;;4815676;29;20042;-85
2022/08/02 00:18:46;;;;;;;6.25;3.20;;;14.80;99.90;;;;;;4823896;29;20175;-86
2022/08/02 00:21:12;;;;;;;5.43;3.30;;;14.80;99.90;;;;;;4806105;29;20492;-85
2022/08/02 00:23:38;;;;;;;6.35;3.00;;;14.80;99.90;;;;;;4817145;29;20515;-86
2022/08/02 00:26:03;;;;;;;7.80;3.33;;;14.80;99.90;;;;;;4835770;29;20043;-86
2022/08/02 00:28:29;;;;;;;5.03;2.92;;;14.80;99.90;;;;;;4803610;29;20053;-85
2022/08/02 00:30:58;;;;;;;7.00;3.83;;;14.80;99.90;;;;;;4819141;29;20158;-85
2022/08/02 00:33:24;;;;;;;9.23;3.50;;;14.70;99.90;;;;;;4808417;29;20133;-85
2022/08/02 00:35:50;;;;;;;6.20;3.38;;;14.70;99.90;;;;;;4802414;29;20054;-85
2022/08/02 00:38:16;;;;;;;6.63;3.50;;;14.70;99.90;;;;;;4836847;29;20054;-85
2022/08/02 00:40:46;;;;;;;6.45;3.47;;;14.70;99.90;;;;;;4836505;29;20070;-85
2022/08/02 00:43:12;;;;;;;7.00;3.30;;;14.60;99.90;;;;;;4821418;29;20054;-85
2022/08/02 00:45:39;;;;;;;7.80;3.53;;;14.60;99.90;;;;;;4820145;29;20042;-85
2022/08/02 00:48:06;;;;;;;7.72;2.95;;;14.60;99.90;;;;;;4802493;29;20069;-85
2022/08/02 00:50:33;;;;;;;7.70;3.33;;;14.50;99.90;;;;;;4807097;29;20053;-86
2022/08/02 00:52:59;;;;;;;6.38;3.30;;;14.60;99.90;;;;;;4801164;29;20488;-85
2022/08/02 00:55:25;;;;;;;6.50;3.20;;;14.50;99.90;;;;;;4814659;29;20091;-85
2022/08/02 00:57:51;;;;;;;4.38;3.20;;;14.50;99.90;;;;;;4814312;29;20047;-84
2022/08/02 01:00:17;;;;;;;8.75;3.20;;;14.50;99.90;;;;;;4800036;29;20053;-85
2022/08/02 01:02:43;;;;;;;5.97;2.90;;;14.50;99.90;;;;;;4787671;29;20138;-85
2022/08/02 01:05:10;;;;;;;5.50;3.22;;;14.50;99.90;;;;;;4829539;29;20054;-85
2022/08/02 01:07:35;;;;;;;6.40;3.05;;;14.50;99.90;;;;;;4807129;29;20046;-85
2022/08/02 01:10:01;;;;;;;7.63;3.30;;;14.40;99.90;;;;;;4819816;29;20044;-85
2022/08/02 01:12:27;;;;;;;8.13;3.58;;;14.40;99.90;;;;;;4820940;29;20081;-85
2022/08/02 01:14:56;;;;;;;7.07;3.17;;;14.40;99.90;;;;;;4822626;29;20483;-85
2022/08/02 01:17:35;;;;;;;3.97;2.75;;;14.30;99.90;;;;;;4826741;29;20497;-85
2022/08/02 01:20:22;;;;;;;6.50;3.08;;;14.40;99.90;;;;;;4815240;29;20181;-85
2022/08/02 01:23:01;;;;;;;9.35;3.58;;;14.30;99.90;;;;;;4809914;29;20047;-85
2022/08/02 01:25:35;;;;;;;8.40;3.20;;;14.30;99.90;;;;;;4808197;29;20042;-85
2022/08/02 01:28:28;;;;;;;6.53;3.10;;;14.30;99.90;;;;;;4819275;29;20066;-85
2022/08/02 01:31:11;;;;;;;6.30;3.20;;;14.30;99.90;;;;;;4817491;29;20095;-85
2022/08/02 01:33:46;;;;;;;5.82;3.08;;;14.30;99.90;;;;;;4801735;29;20050;-85
2022/08/02 01:36:15;;;;;;;6.72;3.63;;;14.30;99.90;;;;;;4838720;29;20054;-85
2022/08/02 01:38:46;;;;;;;8.52;3.30;;;14.20;99.90;;;;;;4821018;29;20107;-85
2022/08/02 01:41:17;;;;;;;4.43;2.80;;;14.20;99.90;;;;;;4820504;29;20111;-85
2022/08/02 01:43:44;;;;;;;6.63;3.28;;;14.20;99.90;;;;;;4836493;29;20042;-85
2022/08/02 01:46:13;;;;;;;6.63;3.60;;;14.10;99.90;;;;;;4793448;29;20047;-86
2022/08/02 01:48:40;;;;;;;10.63;4.35;;;14.10;99.90;;;;;;4821177;29;20046;-85
2022/08/02 01:51:10;;;;;;;6.95;3.40;;;14.10;99.90;;;;;;4820999;29;20077;-86
2022/08/02 01:53:37;;;;;;;6.40;3.60;;;14.10;99.90;;;;;;4838804;29;20050;-85
2022/08/02 01:56:06;;;;;;;8.30;3.92;;;14.10;99.90;;;;;;4807746;29;20448;-85
2022/08/02 01:58:36;;;;;;;9.50;3.70;;;14.00;99.90;;;;;;4839264;29;20551;-86
2022/08/02 02:01:04;;;;;;;7.15;4.15;;;14.00;99.90;;;;;;4824537;29;20100;-85
2022/08/02 02:03:31;;;;;;;8.98;3.85;;;14.00;99.90;;;;;;4814245;29;20050;-85
2022/08/02 02:05:58;;;;;;;9.70;4.13;;;14.00;99.90;;;;;;4804735;29;20054;-84
2022/08/02 02:08:29;;;;;;;9.13;3.70;;;14.00;99.90;;;;;;4824781;29;20078;-85
2022/08/02 02:10:56;;;;;;;8.75;3.95;;;14.00;99.90;;;;;;4819567;29;20045;-85
2022/08/02 02:13:25;;;;;;;9.02;3.97;;;13.90;99.90;;;;;;4809568;29;20109;-85
2022/08/02 02:15:52;;;;;;;7.30;3.40;;;14.00;99.90;;;;;;4819715;29;20079;-85
2022/08/02 02:18:23;;;;;;;9.68;3.97;;;13.90;99.90;;;;;;4824804;29;20050;-85
2022/08/02 02:20:49;;;;;;;7.90;3.90;;;13.90;99.90;;;;;;4807395;29;20062;-84
2022/08/02 02:23:16;;;;;;;6.28;3.72;;;13.90;99.90;;;;;;4819603;29;20427;-85
2022/08/02 02:25:42;;;;;;;10.57;4.57;;;13.90;99.90;;;;;;4813758;29;20039;-85
2022/08/02 02:28:21;;;;;;;7.95;3.92;;;13.90;99.90;;;;;;4808584;29;20055;-85
2022/08/02 02:30:52;;;;;;;8.32;3.75;;;13.90;99.90;;;;;;4810499;29;20046;-85
2022/08/02 02:33:19;;;;;;;11.00;4.78;;;13.80;99.90;;;;;;4820664;29;20113;-85
2022/08/02 02:35:49;;;;;;;9.90;4.13;;;13.80;99.90;;;;;;4820684;29;20134;-85
2022/08/02 02:38:19;;;;;;;8.23;4.05;;;13.80;99.90;;;;;;4815555;29;20130;-85
2022/08/02 02:40:47;;;;;;;9.77;4.63;;;13.80;99.90;;;;;;4819632;29;20137;-85
2022/08/02 02:43:14;;;;;;;9.90;4.10;;;13.70;99.90;;;;;;4810645;29;20047;-85
2022/08/02 02:45:41;;;;;;;7.22;3.83;;;13.70;99.90;;;;;;4802602;29;20038;-85
2022/08/02 02:48:09;;;;;;;11.35;4.22;;;13.70;99.90;;;;;;4831287;29;20047;-86
2022/08/02 02:50:36;;;;;;;6.95;3.78;;;13.60;99.90;;;;;;4819374;29;20057;-85
2022/08/02 02:53:03;;;;;;;7.85;4.00;;;13.60;99.90;;;;;;4819041;29;20050;-85
2022/08/02 02:55:30;;;;;;;10.68;4.00;;;13.60;99.90;;;;;;4817609;29;20374;-85
2022/08/02 02:57:57;;;;;;;6.45;3.70;;;13.60;99.90;;;;;;4807592;29;20046;-85
2022/08/02 03:03:16;;;;;;;10.07;4.20;;;13.50;99.90;;;;;;4796398;29;20050;-85
2022/08/02 03:05:42;;;;;;;9.13;3.83;;;13.60;99.90;;;;;;4814147;29;20404;-85
2022/08/02 03:08:11;;;;;;;10.15;3.95;;;13.50;99.90;;;;;;4813413;29;20054;-85
2022/08/02 03:10:38;;;;;;;8.68;4.22;;;13.50;99.90;;;;;;4822214;29;20070;-85
2022/08/02 03:13:04;;;;;;;10.60;3.72;;;13.50;99.90;;;;;;4823509;29;20492;-85
2022/08/02 03:15:30;;;;;;;8.35;3.60;;;13.50;99.90;;;;;;4817818;29;20077;-85
2022/08/02 03:17:56;;;;;;;10.77;4.43;;;13.50;99.90;;;;;;4807465;29;20058;-85
2022/08/02 03:20:22;;;;;;;8.82;4.60;;;13.50;99.90;;;;;;4812686;29;20047;-85
2022/08/02 03:22:48;;;;;;;9.48;4.13;;;13.50;99.90;;;;;;4799635;29;20130;-85
2022/08/02 03:25:15;;;;;;;8.75;4.15;;;13.50;99.90;;;;;;4817099;29;20061;-85
2022/08/02 03:27:41;;;;;;;10.93;4.68;;;13.50;99.90;;;;;;4819169;29;20125;-85
2022/08/02 03:30:09;;;;;;;10.10;5.07;;;13.40;99.90;;;;;;4821803;29;20477;-84
2022/08/02 03:32:36;;;;;;;10.40;4.03;;;13.40;99.90;;;;;;4809893;29;20439;-85
2022/08/02 03:35:03;;;;;;;7.80;4.47;;;13.40;99.90;;;;;;4823796;29;20141;-85
2022/08/02 03:37:31;;;;;;;8.32;4.68;;;13.40;99.90;;;;;;4821801;29;20074;-86
2022/08/02 03:39:58;;;;;;;10.23;4.10;;;13.40;99.90;;;;;;4815246;29;20067;-85
2022/08/02 03:42:26;;;;;;;10.82;4.78;;;13.40;99.90;;;;;;4821045;29;20058;-85
2022/08/02 03:44:54;;;;;;;9.45;4.35;;;13.40;99.90;;;;;;4796860;29;20107;-86
2022/08/02 03:47:22;;;;;;;10.02;4.15;;;13.30;99.90;;;;;;4816284;29;20693;-85
2022/08/02 03:49:48;;;;;;;7.50;3.90;;;13.30;99.90;;;;;;4816362;29;20078;-85
2022/08/02 03:52:14;;;;;;;11.00;4.78;;;13.30;99.90;;;;;;4806574;29;20525;-85
2022/08/02 03:54:40;;;;;;;9.93;4.03;;;13.30;99.90;;;;;;4812301;29;20058;-85
2022/08/02 03:57:06;;;;;;;9.77;3.97;;;13.30;99.90;;;;;;4819870;29;20046;-85
2022/08/02 03:59:43;;;;;;;6.22;3.97;;;13.30;99.90;;;;;;4806721;29;20039;-85
2022/08/02 04:02:10;;;;;;;11.05;4.13;;;13.30;99.90;;;;;;4813240;29;20042;-85
2022/08/02 04:04:36;;;;;;;7.18;4.20;;;13.30;99.90;;;;;;4817917;29;20157;-85
2022/08/02 04:07:01;;;;;;;7.40;3.80;;;13.30;99.90;;;;;;4831570;29;20155;-85
2022/08/02 04:09:27;;;;;;;9.23;4.68;;;13.30;99.90;;;;;;4818831;29;20077;-85
2022/08/02 04:11:53;;;;;;;5.88;4.28;;;13.30;99.90;;;;;;4816662;29;20046;-85
2022/08/02 04:14:19;;;;;;;7.38;4.07;;;13.30;99.90;;;;;;4801055;29;20065;-85
2022/08/02 04:17:00;;;;;;;11.15;4.50;;;13.30;99.90;;;;;;4799791;29;20074;-85
2022/08/02 04:19:37;;;;;;;9.10;4.35;;;13.30;99.90;;;;;;4800862;29;20050;-85
2022/08/02 04:22:08;;;;;;;10.40;4.50;;;13.30;99.90;;;;;;4804947;29;20050;-85
2022/08/02 04:24:38;;;;;;;10.25;4.68;;;13.30;99.90;;;;;;4802151;29;20042;-85
2022/08/02 04:27:04;;;;;;;8.63;4.32;;;13.30;99.90;;;;;;4825670;29;20504;-85
2022/08/02 04:29:31;;;;;;;10.20;4.47;;;13.30;99.90;;;;;;4823931;29;20057;-85
2022/08/02 04:31:57;;;;;;;13.75;5.60;;;13.30;99.90;;;;;;4824321;29;20054;-85
2022/08/02 04:34:23;;;;;;;11.20;4.32;;;13.30;99.90;;;;;;4813944;29;20054;-85
2022/08/02 04:36:49;;;;;;;13.02;4.55;;;13.30;99.90;;;;;;4816505;29;20054;-85
2022/08/02 04:39:14;;;;;;;11.23;4.50;;;13.30;99.90;;;;;;4804837;29;20130;-85
2022/08/02 04:41:47;;;;;;;6.47;4.70;;;13.30;99.90;;;;;;4833098;29;20466;-86
2022/08/02 04:44:13;;;;;;;11.73;4.40;;;13.40;99.90;;;;;;4798210;29;20054;-85
2022/08/02 04:46:40;;;;;;;10.75;5.00;;;13.30;99.90;;;;;;4823856;29;20039;-85
2022/08/02 04:49:06;;;;;;;11.15;4.30;;;13.40;99.90;;;;;;4823304;29;20087;-85
2022/08/02 04:51:40;;;;;;;10.07;4.82;;;13.40;99.90;;;;;;4835150;29;20046;-85
2022/08/02 04:54:08;;;;;;;6.97;4.20;;;13.40;99.90;;;;;;4805094;29;20050;-85
2022/08/02 04:56:34;;;;;;;8.55;4.60;;;13.40;99.90;;;;;;4792420;29;20046;-85
2022/08/02 04:59:00;;;;;;;8.13;4.80;;;13.40;99.90;;;;;;4812960;29;20046;-84
2022/08/02 05:01:26;;;;;;;8.98;4.45;;;13.40;99.90;;;;;;4820006;29;20050;-85
2022/08/02 05:03:52;;;;;;;9.57;4.68;;;13.50;99.90;;;;;;4813446;29;20042;-84
2022/08/02 05:06:18;;;;;;;7.38;4.25;;;13.50;99.90;;;;;;4814714;29;20133;-85
2022/08/02 05:08:45;;;;;;;11.23;4.28;;;13.50;99.90;;;;;;4815079;29;20043;-85
2022/08/02 05:11:11;;;;;;;10.63;5.43;;;13.50;99.90;;;;;;4828861;29;20095;-85
2022/08/02 05:13:36;;;;;;;7.30;4.40;;;13.60;99.90;;;;;;4820479;29;20129;-85
2022/08/02 05:16:03;;;;;;;9.85;4.60;;;13.60;99.90;;;;;;4806298;29;20055;-85
2022/08/02 05:18:29;;;;;;;11.95;4.70;;;13.60;99.90;;;;;;4831511;29;20054;-85
2022/08/02 05:20:55;;;;;;;7.05;4.35;;;13.60;99.90;;;;;;4813663;29;20396;-85
2022/08/02 05:23:21;;;;;;;9.27;4.53;;;13.70;99.90;;;;;;4810559;29;20045;-86
2022/08/02 05:25:47;;;;;;;13.50;4.97;;;13.80;99.90;;;;;;4849690;29;20030;-84
2022/08/02 05:28:13;;;;;;;11.30;4.50;;;13.80;99.90;;;;;;4835603;29;20042;-84
2022/08/02 05:30:39;;;;;;;12.27;4.65;;;13.80;99.90;;;;;;4858542;29;20136;-85
2022/08/02 05:33:05;;;;;;;13.63;4.43;;;13.90;99.90;;;;;;4806595;29;20496;-85
2022/08/02 05:35:32;;;;;;;7.32;4.03;;;13.90;99.90;;;;;;4816177;29;20061;-85
2022/08/02 05:37:57;;;;;;;10.55;4.43;;;14.00;99.90;;;;;;4795209;29;20059;-85
2022/08/02 05:40:23;;;;;;;9.70;4.30;;;14.10;99.90;;;;;;4799300;29;20443;-85
2022/08/02 05:42:49;;;;;;;7.25;4.15;;;14.20;99.90;;;;;;4831715;29;20086;-85
2022/08/02 05:45:15;;;;;;;13.88;4.43;;;14.20;99.90;;;;;;4808202;29;20038;-85
2022/08/02 05:47:40;;;;;;;11.23;4.15;;;14.30;99.90;;;;;;4802815;29;20522;-85
2022/08/02 05:50:07;;;;;;;12.90;4.50;;;14.30;99.90;;;;;;4825225;29;20149;-85
2022/08/02 05:52:50;;;;;;;11.52;4.60;;;14.50;99.90;;;;;;4809253;29;20046;-84
2022/08/02 05:55:27;;;;;;;11.38;4.38;;;14.50;99.90;;;;;;4834850;29;20045;-85
2022/08/02 05:58:01;;;;;;;10.02;4.82;;;14.60;99.90;;;;;;4818433;29;20099;-85
2022/08/02 06:00:30;;;;;;;7.65;4.35;;;14.70;99.90;;;;;;4823504;29;20070;-86
2022/08/02 06:03:15;;;;;;;11.10;4.70;;;14.80;99.90;;;;;;4804331;29;20046;-85
2022/08/02 06:05:48;;;;;;;9.02;3.97;;;14.90;99.90;;;;;;4812081;29;20061;-84
2022/08/02 06:08:14;;;;;;;9.07;3.80;;;15.00;99.90;;;;;;4818296;29;20070;-85
2022/08/02 06:10:41;;;;;;;9.95;4.40;;;15.10;99.90;;;;;;4811764;29;20507;-85
2022/08/02 06:13:10;;;;;;;7.65;4.15;;;15.20;99.90;;;;;;4839120;29;20046;-84
2022/08/02 06:15:37;;;;;;;11.40;4.40;;;15.30;99.90;;;;;;4824023;29;20046;-84
2022/08/02 06:18:04;;;;;;;9.82;4.05;;;15.30;99.90;;;;;;4812571;29;20038;-84
2022/08/02 06:20:36;;;;;;;10.32;4.45;;;15.40;99.90;;;;;;4803916;29;20051;-84
2022/08/02 06:23:07;;;;;;;12.77;4.65;;;15.50;99.90;;;;;;4825805;29;20133;-85
2022/08/02 06:25:35;;;;;;;16.65;4.32;;;15.50;99.90;;;;;;4820504;29;20038;-84
2022/08/02 06:28:03;;;;;;;10.02;4.35;;;15.60;99.90;;;;;;4824999;29;20117;-86
2022/08/02 06:30:31;;;;;;;9.25;4.10;;;15.70;99.90;;;;;;4821733;29;20050;-85
2022/08/02 06:32:57;;;;;;;9.52;4.70;;;15.70;99.90;;;;;;4841853;29;20052;-84
2022/08/02 06:35:28;;;;;;;11.50;4.07;;;15.80;99.90;;;;;;4804343;29;20133;-84
2022/08/02 06:38:02;;;;;;;8.95;4.15;;;15.90;99.90;;;;;;4825268;29;20039;-85
2022/08/02 06:40:39;;;;;;;8.43;3.95;;;15.90;99.90;;;;;;4825913;29;20089;-86
2022/08/02 06:43:16;;;;;;;8.65;3.85;;;16.00;99.90;;;;;;4816436;29;20054;-84
2022/08/02 06:45:43;;;;;;;10.75;4.03;;;16.20;99.90;;;;;;4834794;29;20391;-84
2022/08/02 06:48:09;;;;;;;7.10;3.72;;;16.40;99.90;;;;;;4832003;29;20045;-84
2022/08/02 06:50:37;;;;;;;9.85;3.95;;;16.70;99.90;;;;;;4841949;29;20057;-85
2022/08/02 06:53:05;;;;;;;9.68;3.80;;;17.00;99.90;;;;;;4823331;29;20070;-85
2022/08/02 06:55:31;;;;;;;7.68;3.40;;;17.30;99.90;;;;;;4817354;29;20083;-86
2022/08/02 06:57:57;;;;;;;11.32;3.83;;;17.70;99.90;;;;;;4823556;29;20050;-85
2022/08/02 07:00:23;;;;;;;7.47;3.67;;;18.00;99.90;;;;;;4826632;29;20051;-85
2022/08/02 07:02:49;;;;;;;8.57;3.28;;;18.40;99.90;;;;;;4821941;29;20057;-85
2022/08/02 07:05:15;;;;;;;7.07;3.10;;;18.80;99.90;;;;;;4818893;29;20404;-83
2022/08/02 07:07:41;;;;;;;10.63;3.08;;;19.10;99.90;;;;;;4819590;29;20063;-84
2022/08/02 07:10:07;;;;;;;8.68;2.95;;;19.30;99.90;;;;;;4832540;29;20038;-83
2022/08/02 07:12:34;;;;;;;7.50;2.85;;;19.50;99.90;;;;;;4817689;29;20085;-84
2022/08/02 07:15:01;;;;;;;6.40;2.80;;;19.70;99.90;;;;;;4823925;29;20039;-84
2022/08/02 07:17:28;;;;;;;6.90;2.80;;;19.80;99.90;;;;;;4818046;29;20086;-84
2022/08/02 07:19:54;;;;;;;7.07;2.55;;;19.70;99.90;;;;;;4810657;29;20068;-84
2022/08/02 07:22:22;;;;;;;7.18;2.47;;;19.70;99.90;;;;;;4838850;29;20171;-84
2022/08/02 07:24:48;;;;;;;6.82;2.53;;;19.80;99.90;;;;;;4816387;29;20439;-84
2022/08/02 07:27:13;;;;;;;7.85;2.88;;;19.90;99.90;;;;;;4824721;29;20042;-84
2022/08/02 07:29:40;;;;;;;6.45;2.72;;;20.00;99.90;;;;;;4807652;29;20151;-84
2022/08/02 07:32:06;;;;;;;7.95;2.75;;;20.10;99.90;;;;;;4837983;29;20050;-83
2022/08/02 07:34:32;;;;;;;6.20;2.72;;;20.20;99.90;;;;;;4822014;29;20042;-83
2022/08/02 07:36:58;;;;;;;8.75;2.60;;;20.40;99.90;;;;;;4816829;29;20053;-83
2022/08/02 07:39:24;;;;;;;6.03;2.47;;;20.60;99.90;;;;;;4805572;29;20187;-83
2022/08/02 07:41:52;;;;;;;6.40;2.45;;;20.80;99.90;;;;;;4790346;29;20070;-83
2022/08/02 07:44:18;;;;;;;5.30;2.63;;;21.00;99.90;;;;;;4818030;29;20121;-83
2022/08/02 07:46:45;;;;;;;6.20;2.53;;;21.10;99.90;;;;;;4823425;29;20058;-83
2022/08/02 07:49:17;;;;;;;5.07;2.40;;;21.30;99.90;;;;;;4821946;29;20048;-84
2022/08/02 07:51:44;;;;;;;6.20;2.45;;;21.50;99.90;;;;;;4803413;29;20049;-84
2022/08/02 07:54:09;;;;;;;5.30;2.53;;;21.80;99.90;;;;;;4818901;29;20164;-84
2022/08/02 07:56:36;;;;;;;6.50;2.80;;;22.00;99.90;;;;;;4801633;29;20046;-84
2022/08/02 07:59:02;;;;;;;4.88;2.58;;;22.20;99.90;;;;;;4812890;29;20042;-84
2022/08/02 08:01:28;;;;;;;6.65;2.40;;;22.30;99.90;;;;;;4817709;29;20046;-84
2022/08/02 08:03:54;;;;;;;9.95;2.42;;;22.40;99.90;;;;;;4794272;29;20055;-84
2022/08/02 08:06:19;;;;;;;6.10;2.50;;;22.40;99.90;;;;;;4810492;29;20074;-83
2022/08/02 08:08:45;;;;;;;6.35;2.40;;;22.40;99.90;;;;;;4815643;29;20508;-85
2022/08/02 08:11:11;;;;;;;6.38;2.45;;;22.50;99.90;;;;;;4804141;29;20050;-86
2022/08/02 08:13:36;;;;;;;8.52;2.40;;;22.60;99.90;;;;;;4816318;29;20046;-84
2022/08/02 08:16:04;;;;;;;5.00;2.60;;;22.70;99.90;;;;;;4807007;29;20067;-83
2022/08/02 08:18:30;;;;;;;5.95;2.80;;;22.90;99.90;;;;;;4836841;29;20051;-83
2022/08/02 08:20:55;;;;;;;4.57;2.50;;;23.00;99.90;;;;;;4825952;29;20051;-83
2022/08/02 08:23:21;;;;;;;7.70;2.80;;;22.90;99.80;;;;;;4837337;29;20556;-83
2022/08/02 08:25:47;;;;;;;6.35;2.47;;;22.80;99.90;;;;;;4836461;29;20391;-83
2022/08/02 08:28:13;;;;;;;9.27;3.20;;;22.80;99.40;;;;;;4820041;29;20137;-83
2022/08/02 08:30:41;;;;;;;6.57;2.83;;;22.70;99.00;;;;;;4835690;29;20046;-83
2022/08/02 08:33:06;;;;;;;6.82;2.47;;;22.70;99.40;;;;;;4813587;29;20136;-83
2022/08/02 08:35:32;;;;;;;5.55;2.63;;;22.80;99.50;;;;;;4820985;29;20077;-84
2022/08/02 08:37:58;;;;;;;6.65;2.55;;;22.90;99.60;;;;;;4806368;29;20046;-83
2022/08/02 08:40:24;;;;;;;8.43;2.72;;;23.00;99.80;;;;;;4805607;29;20094;-82
2022/08/02 08:42:50;;;;;;;6.32;2.40;;;23.10;99.90;;;;;;4819044;29;20089;-82
2022/08/02 08:45:16;;;;;;;7.43;2.72;;;23.30;99.90;;;;;;4797476;29;20085;-82
2022/08/02 08:47:45;;;;;;;5.93;2.80;;;23.50;99.90;;;;;;4813412;29;20059;-83
2022/08/02 08:50:18;;;;;;;5.32;2.65;;;23.70;99.80;;;;;;4812173;29;20042;-82
2022/08/02 08:53:03;;;;;;;6.00;2.70;;;23.80;99.10;;;;;;4815572;29;20516;-85
2022/08/02 08:55:30;;;;;;;4.72;2.35;;;23.80;97.40;;;;;;4823291;29;20077;-85
2022/08/02 08:57:58;;;;;;;4.13;2.25;;;23.80;98.90;;;;;;4823266;29;20111;-85
2022/08/02 09:00:24;;;;;;;7.45;2.22;;;24.00;99.00;;;;;;4783620;29;20061;-85
2022/08/02 09:02:50;;;;;;;5.38;2.13;;;24.20;97.80;;;;;;4816009;29;20251;-85
2022/08/02 09:05:16;;;;;;;6.22;2.45;;;24.20;97.80;;;;;;4819227;29;20086;-85
2022/08/02 09:07:45;;;;;;;5.22;2.50;;;24.30;97.20;;;;;;4831807;29;20118;-85
2022/08/02 09:10:30;;;;;;;6.07;2.30;;;24.40;96.50;;;;;;4826336;29;20492;-84
2022/08/02 09:13:14;;;;;;;6.47;2.55;;;24.40;96.30;;;;;;4821370;29;20042;-85
2022/08/02 09:15:43;;;;;;;6.65;2.85;;;24.40;95.70;;;;;;4818115;29;20121;-82
2022/08/02 09:18:09;;;;;;;4.63;2.88;;;24.50;96.30;;;;;;4836875;29;20041;-82
2022/08/02 09:20:57;;;;;;;5.50;2.97;;;24.50;96.00;;;;;;4828845;29;20573;-82
2022/08/02 09:23:23;;;;;;;5.70;2.80;;;24.50;95.90;;;;;;4814391;29;20050;-84
2022/08/02 09:26:02;;;;;;;6.32;2.70;;;24.50;96.80;;;;;;4820405;29;20106;-82
2022/08/02 09:28:30;;;;;;;10.30;2.90;;;24.70;96.30;;;;;;4828470;29;20122;-83
2022/08/02 09:31:03;;;;;;;4.28;2.67;;;24.70;96.90;;;;;;4816005;29;20054;-83
2022/08/02 09:33:28;;;;;;;5.10;2.90;;;24.80;96.80;;;;;;4819817;29;20080;-82
2022/08/02 09:36:11;;;;;;;6.35;2.72;;;24.90;97.10;;;;;;4800591;29;20141;-82
2022/08/02 09:38:38;;;;;;;4.63;2.75;;;25.00;95.90;;;;;;4832135;29;20511;-82
2022/08/02 09:41:18;;;;;;;6.85;2.95;;;25.10;96.70;;;;;;4807026;29;20058;-83
2022/08/02 09:43:44;;;;;;;5.93;2.90;;;25.10;96.70;;;;;;4806452;29;20086;-82
2022/08/02 09:46:20;;;;;;;5.07;2.85;;;25.20;96.60;;;;;;4820936;29;20098;-82
2022/08/02 09:48:52;;;;;;;6.03;2.92;;;25.20;95.80;;;;;;4800895;29;20042;-82
2022/08/02 09:51:20;;;;;;;5.63;2.70;;;25.20;96.30;;;;;;4808698;29;20104;-82
2022/08/02 09:53:48;;;;;;;7.30;3.00;;;25.20;95.90;;;;;;4804001;29;20046;-82
2022/08/02 09:56:16;;;;;;;7.03;3.00;;;25.10;96.10;;;;;;4810830;29;20082;-82
2022/08/02 09:58:41;;;;;;;5.88;2.88;;;25.00;96.20;;;;;;4836566;29;20065;-82
2022/08/02 10:01:07;;;;;;;5.43;2.97;;;25.00;96.10;;;;;;4799314;29;20070;-82
2022/08/02 10:03:33;;;;;;;4.80;3.08;;;24.80;96.40;;;;;;4800897;29;20062;-82
2022/08/02 10:06:00;;;;;;;5.68;2.92;;;24.80;96.50;;;;;;4800312;29;20066;-82
2022/08/02 10:08:27;;;;;;;4.72;2.50;;;24.70;96.90;;;;;;4818902;29;20114;-82
2022/08/02 10:11:02;;;;;;;6.68;2.92;;;24.60;97.10;;;;;;4813536;29;20138;-82
2022/08/02 10:13:33;;;;;;;6.07;2.78;;;24.70;97.10;;;;;;4833541;29;20046;-82
2022/08/02 10:15:59;;;;;;;5.30;2.97;;;24.60;97.30;;;;;;4818277;29;20595;-82
2022/08/02 10:18:24;;;;;;;5.13;3.35;;;24.70;97.40;;;;;;4816041;29;20408;-83
2022/08/02 10:20:55;;;;;;;8.65;3.08;;;24.60;97.40;;;;;;4827319;29;20051;-84
2022/08/02 10:23:24;;;;;;;4.03;3.00;;;24.70;97.50;;;;;;4813655;29;20050;-83
2022/08/02 10:25:52;;;;;;;5.22;2.92;;;24.80;97.60;;;;;;4819448;29;20495;-83
2022/08/02 10:28:22;;;;;;;3.30;2.50;;;24.80;97.30;;;;;;4805171;29;20054;-84
2022/08/02 10:30:49;;;;;;;6.28;3.40;;;24.80;96.70;;;;;;4808222;29;20047;-83
2022/08/02 10:33:18;;;;;;;5.25;2.58;;;24.80;97.00;;;;;;4807559;29;20519;-83
2022/08/02 10:35:44;;;;;;;3.40;2.08;;;24.80;97.00;;;;;;4823256;29;20050;-84
2022/08/02 10:38:11;;;;;;;4.30;1.90;;;24.80;96.50;;;;;;4825866;29;20087;-85
2022/08/02 10:40:45;;;;;;;4.45;2.10;;;24.80;95.60;;;;;;4803914;29;20098;-81
2022/08/02 10:43:12;;;;;;;3.88;1.92;;;24.80;95.10;;;;;;4837034;29;20046;-86
2022/08/02 10:45:38;;;;;;;4.38;2.08;;;24.80;95.10;;;;;;4826263;29;20038;-84
2022/08/02 10:48:13;;;;;;;4.47;2.28;;;24.80;95.20;;;;;;4809394;29;20501;-84
2022/08/02 10:50:45;;;;;;;3.58;2.53;;;24.80;95.60;;;;;;4819351;29;20080;-84
2022/08/02 10:53:29;;;;;;;6.50;3.28;;;24.70;96.00;;;;;;4820554;29;20046;-83
2022/08/02 10:56:00;;;;;;;6.38;3.72;;;24.70;96.20;;;;;;4811561;29;20507;-83
2022/08/02 10:58:30;;;;;;;6.18;3.78;;;24.70;96.60;;;;;;4824969;29;20050;-83
2022/08/02 11:00:58;;;;;;;8.40;4.00;;;24.80;97.00;;;;;;4827945;29;20047;-82
2022/08/02 11:03:39;;;;;;;6.35;3.60;;;24.80;97.20;;;;;;4793147;29;20081;-84
2022/08/02 11:06:09;;;;;;;5.03;3.83;;;24.80;97.30;;;;;;4810715;29;20107;-84
2022/08/02 11:08:35;;;;;;;4.72;3.45;;;24.80;97.10;;;;;;4808457;29;20050;-84
2022/08/02 11:11:15;;;;;;;7.93;3.47;;;24.90;97.40;;;;;;4839155;29;20038;-82
2022/08/02 11:14:03;;;;;;;4.43;3.33;;;24.90;97.30;;;;;;4837882;29;20071;-82
2022/08/02 11:16:54;;;;;;;6.32;4.22;;;25.00;97.90;;;;;;4832800;29;20063;-83
2022/08/02 11:19:21;;;;;;;6.35;4.25;;;25.00;98.40;;;;;;4837016;29;20130;-82
2022/08/02 11:22:19;;;;;;;6.93;4.93;;;25.10;97.80;;;;;;4824163;29;20042;-83
2022/08/02 11:24:46;;;;;;;7.05;5.00;;;25.10;97.00;;;;;;4789355;29;20062;-83
2022/08/02 11:27:20;;;;;;;5.75;4.13;;;25.00;97.50;;;;;;4833914;29;20073;-83
2022/08/02 11:29:49;;;;;;;7.38;4.85;;;25.10;97.50;;;;;;4814407;29;20083;-84
2022/08/02 11:32:23;;;;;;;5.90;4.05;;;25.00;97.40;;;;;;4796329;29;20042;-82
2022/08/02 11:34:51;;;;;;;6.25;4.53;;;25.00;97.90;;;;;;4815453;29;20050;-82
2022/08/02 11:37:31;;;;;;;7.20;4.40;;;25.10;97.90;;;;;;4839880;29;20038;-83
2022/08/02 11:39:57;;;;;;;8.40;5.18;;;25.20;97.50;;;;;;4840289;29;20218;-83
2022/08/02 11:42:39;;;;;;;6.72;4.25;;;25.20;97.80;;;;;;4836522;29;20158;-82
2022/08/02 11:45:07;;;;;;;5.75;3.55;;;25.20;98.10;;;;;;4822011;29;20050;-83
2022/08/02 11:47:44;;;;;;;4.60;2.92;;;25.20;97.60;;;;;;4822694;29;20043;-80
2022/08/02 11:50:10;;;;;;;4.38;2.00;;;25.20;97.20;;;;;;4810674;29;20049;-83
2022/08/02 11:52:36;;;;;;;3.55;2.40;;;25.20;97.20;;;;;;4809354;29;20050;-84
2022/08/02 11:55:04;;;;;;;4.22;2.53;;;25.30;96.80;;;;;;4809796;29;20150;-83
2022/08/02 11:57:30;;;;;;;5.50;2.88;;;25.30;96.60;;;;;;4824906;29;20484;-83
2022/08/02 11:59:56;;;;;;;3.60;2.42;;;25.30;96.20;;;;;;4819817;29;20044;-82
2022/08/02 12:02:26;;;;;;;4.97;2.97;;;25.40;96.40;;;;;;4837784;29;20053;-83
2022/08/02 12:04:59;;;;;;;7.03;3.38;;;25.40;96.60;;;;;;4815980;29;20045;-83
2022/08/02 12:07:31;;;;;;;4.35;2.88;;;25.30;96.40;;;;;;4818549;29;20046;-83
2022/08/02 12:10:01;;;;;;;6.22;3.35;;;25.30;96.60;;;;;;4822953;29;20492;-83
2022/08/02 12:12:27;;;;;;;7.13;3.13;;;25.40;96.80;;;;;;4800847;29;20055;-83
2022/08/02 12:14:53;;;;;;;4.90;3.45;;;25.50;97.00;;;;;;4802952;29;20441;-82
2022/08/02 12:20:08;;;;;;;6.40;3.15;;;25.60;96.90;;;;;;4819563;29;20046;-83
2022/08/02 12:22:36;;;;;;;3.75;2.72;;;25.80;96.70;;;;;;4827925;29;20123;-82
2022/08/02 12:25:16;;;;;;;7.22;3.75;;;25.90;97.00;;;;;;4809927;29;20039;-82
2022/08/02 12:27:42;;;;;;;5.75;3.63;;;26.10;97.00;;;;;;4821067;29;20056;-83
2022/08/02 12:30:11;;;;;;;5.85;3.67;;;26.20;96.70;;;;;;4805775;29;20046;-82
2022/08/02 12:32:38;;;;;;;4.35;3.55;;;26.20;96.50;;;;;;4813914;29;20084;-81
2022/08/02 12:35:11;;;;;;;5.05;3.70;;;26.20;96.30;;;;;;4816563;29;20094;-82
2022/08/02 12:37:39;;;;;;;5.72;4.35;;;26.00;96.50;;;;;;4829509;29;20081;-83
2022/08/02 12:40:25;;;;;;;4.50;3.53;;;25.90;96.40;;;;;;4811899;29;20073;-83
2022/08/02 12:43:02;;;;;;;3.95;3.28;;;25.90;96.40;;;;;;4828368;29;20478;-84
2022/08/02 12:45:32;;;;;;;7.68;3.92;;;25.90;96.70;;;;;;4820136;29;20081;-82
2022/08/02 12:47:59;;;;;;;5.63;3.67;;;25.80;96.60;;;;;;4803155;29;20046;-82
2022/08/02 12:50:36;;;;;;;5.80;3.95;;;25.70;96.60;;;;;;4803481;29;20047;-83
2022/08/02 12:53:10;;;;;;;7.88;4.47;;;25.70;96.50;;;;;;4807524;29;20412;-85
2022/08/02 12:55:46;;;;;;;8.73;5.85;;;25.70;96.80;;;;;;4826171;29;20042;-83
2022/08/02 12:58:11;;;;;;;7.28;5.22;;;25.70;96.80;;;;;;4819308;29;20103;-82
2022/08/02 13:00:38;;;;;;;8.85;6.22;;;25.70;97.20;;;;;;4819319;29;20042;-82